sensor_id;sensor_type;location;lat;lon;timestamp;temperature;humidity
15296;DHT22;7749;49.964;7.890;2022-07-01T00:00:23;16.60;99.90
15296;DHT22;7749;49.964;7.890;2022-07-01T00:02:50;16.60;99.90
15296;DHT22;7749;49.964;7.890;2022-07-01T00:05:18;16.70;99.90
15296;DHT22;7749;49.964;7.890;2022-07-01T00:07:46;16.70;99.90
15296;DHT22;7749;49.964;7.890;2022-07-01T00:10:14;16.80;99.90
15296;DHT22;7749;49.964;7.890;2022-07-01T00:12:41;16.90;99.90
15296;DHT22;7749;49.964;7.890;2022-07-01T00:15:09;16.90;99.90
15296;DHT22;7749;49.964;7.890;2022-07-01T00:17:37;17.00;99.90
15296;DHT22;7749;49.964;7.890;2022-07-01T00:20:05;17.10;99.90
15296;DHT22;7749;49.964;7.890;2022-07-01T00:22:32;17.10;99.90
15296;DHT22;7749;49.964;7.890;2022-07-01T00:25:00;17.10;99.90
15296;DHT22;7749;49.964;7.890;2022-07-01T00:27:27;17.10;99.90
15296;DHT22;7749;49.964;7.890;2022-07-01T00:29:55;17.00;99.90
15296;DHT22;7749;49.964;7.890;2022-07-01T00:32:22;17.10;99.90
15296;DHT22;7749;49.964;7.890;2022-07-01T00:34:50;17.10;99.90
15296;DHT22;7749;49.964;7.890;2022-07-01T00:37:17;17.00;99.90
15296;DHT22;7749;49.964;7.890;2022-07-01T00:39:44;17.00;99.90
15296;DHT22;7749;49.964;7.890;2022-07-01T00:42:12;17.00;99.90
15296;DHT22;7749;49.964;7.890;2022-07-01T00:44:39;17.00;99.90
15296;DHT22;7749;49.964;7.890;2022-07-01T00:47:12;17.00;99.90
15296;DHT22;7749;49.964;7.890;2022-07-01T00:49:40;17.00;99.90
15296;DHT22;7749;49.964;7.890;2022-07-01T00:52:08;16.90;99.90
15296;DHT22;7749;49.964;7.890;2022-07-01T00:54:37;16.90;99.90
15296;DHT22;7749;49.964;7.890;2022-07-01T00:57:09;16.80;99.90
15296;DHT22;7749;49.964;7.890;2022-07-01T00:59:38;16.80;99.90
15296;DHT22;7749;49.964;7.890;2022-07-01T01:02:07;16.80;99.90
15296;DHT22;7749;49.964;7.890;2022-07-01T01:04:35;16.80;99.90
15296;DHT22;7749;49.964;7.890;2022-07-01T01:07:03;16.80;99.90
15296;DHT22;7749;49.964;7.890;2022-07-01T01:09:31;16.80;99.90
15296;DHT22;7749;49.964;7.890;2022-07-01T01:11:58;16.70;99.90
15296;DHT22;7749;49.964;7.890;2022-07-01T01:14:27;16.70;99.90
15296;DHT22;7749;49.964;7.890;2022-07-01T01:16:54;16.50;99.90
15296;DHT22;7749;49.964;7.890;2022-07-01T01:19:22;16.50;99.90
15296;DHT22;7749;49.964;7.890;2022-07-01T01:21:49;16.40;99.90
15296;DHT22;7749;49.964;7.890;2022-07-01T01:24:16;16.50;99.90
15296;DHT22;7749;49.964;7.890;2022-07-01T01:26:44;16.60;99.90
15296;DHT22;7749;49.964;7.890;2022-07-01T01:29:11;16.60;99.90
15296;DHT22;7749;49.964;7.890;2022-07-01T01:31:38;16.60;99.90
15296;DHT22;7749;49.964;7.890;2022-07-01T01:34:07;16.70;99.90
15296;DHT22;7749;49.964;7.890;2022-07-01T01:36:34;16.70;99.90
15296;DHT22;7749;49.964;7.890;2022-07-01T01:39:02;16.70;99.90
15296;DHT22;7749;49.964;7.890;2022-07-01T01:41:33;16.60;99.90
15296;DHT22;7749;49.964;7.890;2022-07-01T01:44:00;16.40;99.90
15296;DHT22;7749;49.964;7.890;2022-07-01T01:46:27;16.50;99.90
15296;DHT22;7749;49.964;7.890;2022-07-01T01:48:57;16.60;99.90
15296;DHT22;7749;49.964;7.890;2022-07-01T01:51:25;16.60;99.90
15296;DHT22;7749;49.964;7.890;2022-07-01T01:53:52;16.70;99.90
15296;DHT22;7749;49.964;7.890;2022-07-01T01:56:20;16.70;99.90
15296;DHT22;7749;49.964;7.890;2022-07-01T01:58:47;16.60;99.90
15296;DHT22;7749;49.964;7.890;2022-07-01T02:01:15;16.60;99.90
15296;DHT22;7749;49.964;7.890;2022-07-01T02:03:43;16.60;99.90
15296;DHT22;7749;49.964;7.890;2022-07-01T02:06:12;16.50;99.90
15296;DHT22;7749;49.964;7.890;2022-07-01T02:08:40;16.40;99.90
15296;DHT22;7749;49.964;7.890;2022-07-01T02:11:08;16.40;99.90
15296;DHT22;7749;49.964;7.890;2022-07-01T02:13:36;16.40;99.90
15296;DHT22;7749;49.964;7.890;2022-07-01T02:16:04;16.30;99.90
15296;DHT22;7749;49.964;7.890;2022-07-01T02:18:32;16.30;99.90
15296;DHT22;7749;49.964;7.890;2022-07-01T02:20:59;16.30;99.90
15296;DHT22;7749;49.964;7.890;2022-07-01T02:23:27;16.30;99.90
15296;DHT22;7749;49.964;7.890;2022-07-01T02:25:54;16.40;99.90
15296;DHT22;7749;49.964;7.890;2022-07-01T02:28:22;16.30;99.90
15296;DHT22;7749;49.964;7.890;2022-07-01T02:30:49;16.20;99.90
15296;DHT22;7749;49.964;7.890;2022-07-01T02:33:16;16.20;99.90
15296;DHT22;7749;49.964;7.890;2022-07-01T02:35:44;16.20;99.90
15296;DHT22;7749;49.964;7.890;2022-07-01T02:38:16;16.20;99.90
15296;DHT22;7749;49.964;7.890;2022-07-01T02:40:44;16.30;99.90
15296;DHT22;7749;49.964;7.890;2022-07-01T02:43:11;16.30;99.90
15296;DHT22;7749;49.964;7.890;2022-07-01T02:45:39;16.40;99.90
15296;DHT22;7749;49.964;7.890;2022-07-01T02:48:07;16.50;99.90
15296;DHT22;7749;49.964;7.890;2022-07-01T02:50:34;16.30;99.90
15296;DHT22;7749;49.964;7.890;2022-07-01T02:53:02;16.30;99.90
15296;DHT22;7749;49.964;7.890;2022-07-01T02:55:30;16.10;99.90
15296;DHT22;7749;49.964;7.890;2022-07-01T02:57:57;16.00;99.90
15296;DHT22;7749;49.964;7.890;2022-07-01T03:00:25;16.00;99.90
15296;DHT22;7749;49.964;7.890;2022-07-01T03:02:52;16.00;99.90
15296;DHT22;7749;49.964;7.890;2022-07-01T03:05:20;16.10;99.90
15296;DHT22;7749;49.964;7.890;2022-07-01T03:07:47;16.20;99.90
15296;DHT22;7749;49.964;7.890;2022-07-01T03:10:15;16.10;99.90
15296;DHT22;7749;49.964;7.890;2022-07-01T03:12:42;16.20;99.90
15296;DHT22;7749;49.964;7.890;2022-07-01T03:15:14;16.10;99.90
15296;DHT22;7749;49.964;7.890;2022-07-01T03:17:44;16.00;99.90
15296;DHT22;7749;49.964;7.890;2022-07-01T03:20:14;15.90;99.90
15296;DHT22;7749;49.964;7.890;2022-07-01T03:22:43;15.80;99.90
15296;DHT22;7749;49.964;7.890;2022-07-01T03:25:11;15.90;99.90
15296;DHT22;7749;49.964;7.890;2022-07-01T03:27:39;16.10;99.90
15296;DHT22;7749;49.964;7.890;2022-07-01T03:30:12;16.00;99.90
15296;DHT22;7749;49.964;7.890;2022-07-01T03:32:41;16.10;99.90
15296;DHT22;7749;49.964;7.890;2022-07-01T03:35:09;16.00;99.90
15296;DHT22;7749;49.964;7.890;2022-07-01T03:37:55;16.00;99.90
15296;DHT22;7749;49.964;7.890;2022-07-01T03:40:23;16.10;99.90
15296;DHT22;7749;49.964;7.890;2022-07-01T03:42:51;16.00;99.90
15296;DHT22;7749;49.964;7.890;2022-07-01T03:45:18;15.80;99.90
15296;DHT22;7749;49.964;7.890;2022-07-01T03:47:49;15.80;99.90
15296;DHT22;7749;49.964;7.890;2022-07-01T03:50:19;15.70;99.90
15296;DHT22;7749;49.964;7.890;2022-07-01T03:52:47;15.80;99.90
15296;DHT22;7749;49.964;7.890;2022-07-01T03:55:15;15.80;99.90
15296;DHT22;7749;49.964;7.890;2022-07-01T03:57:43;15.80;99.90
15296;DHT22;7749;49.964;7.890;2022-07-01T04:00:11;15.80;99.90
15296;DHT22;7749;49.964;7.890;2022-07-01T04:02:46;15.80;99.90
15296;DHT22;7749;49.964;7.890;2022-07-01T04:05:15;15.70;99.90
15296;DHT22;7749;49.964;7.890;2022-07-01T04:07:42;15.80;99.90
15296;DHT22;7749;49.964;7.890;2022-07-01T04:10:10;15.90;99.90
15296;DHT22;7749;49.964;7.890;2022-07-01T04:12:38;15.80;99.90
15296;DHT22;7749;49.964;7.890;2022-07-01T04:15:06;15.90;99.90
15296;DHT22;7749;49.964;7.890;2022-07-01T04:17:34;16.00;99.90
15296;DHT22;7749;49.964;7.890;2022-07-01T04:20:01;16.00;99.90
15296;DHT22;7749;49.964;7.890;2022-07-01T04:22:29;15.90;99.90
15296;DHT22;7749;49.964;7.890;2022-07-01T04:25:05;15.90;99.90
15296;DHT22;7749;49.964;7.890;2022-07-01T04:27:33;16.00;99.90
15296;DHT22;7749;49.964;7.890;2022-07-01T04:30:01;16.10;99.90
15296;DHT22;7749;49.964;7.890;2022-07-01T04:32:31;16.20;89.90
15296;DHT22;7749;49.964;7.890;2022-07-01T04:34:58;16.10;96.30
15296;DHT22;7749;49.964;7.890;2022-07-01T04:37:26;16.20;91.70
15296;DHT22;7749;49.964;7.890;2022-07-01T04:39:53;16.20;92.00
15296;DHT22;7749;49.964;7.890;2022-07-01T04:42:20;16.30;90.30
15296;DHT22;7749;49.964;7.890;2022-07-01T04:44:49;16.30;83.40
15296;DHT22;7749;49.964;7.890;2022-07-01T04:47:17;16.30;90.30
15296;DHT22;7749;49.964;7.890;2022-07-01T04:49:44;16.30;91.10
15296;DHT22;7749;49.964;7.890;2022-07-01T04:52:12;16.30;99.90
15296;DHT22;7749;49.964;7.890;2022-07-01T04:54:39;16.40;99.90
15296;DHT22;7749;49.964;7.890;2022-07-01T04:57:07;16.70;99.90
15296;DHT22;7749;49.964;7.890;2022-07-01T04:59:35;16.90;97.50
15296;DHT22;7749;49.964;7.890;2022-07-01T05:02:03;17.00;99.60
15296;DHT22;7749;49.964;7.890;2022-07-01T05:04:36;17.20;94.20
15296;DHT22;7749;49.964;7.890;2022-07-01T05:07:04;17.30;81.10
15296;DHT22;7749;49.964;7.890;2022-07-01T05:09:32;17.40;74.60
15296;DHT22;7749;49.964;7.890;2022-07-01T05:11:59;17.40;64.70
15296;DHT22;7749;49.964;7.890;2022-07-01T05:14:37;17.50;70.80
15296;DHT22;7749;49.964;7.890;2022-07-01T05:17:04;17.70;33.40
15296;DHT22;7749;49.964;7.890;2022-07-01T05:19:32;17.70;21.30
15296;DHT22;7749;49.964;7.890;2022-07-01T05:22:18;17.80;12.90
15296;DHT22;7749;49.964;7.890;2022-07-01T05:24:50;17.90;6.40
15296;DHT22;7749;49.964;7.890;2022-07-01T05:27:19;17.90;1.00
15296;DHT22;7749;49.964;7.890;2022-07-01T05:29:46;17.80;1.00
15296;DHT22;7749;49.964;7.890;2022-07-01T05:32:13;17.90;1.00
15296;DHT22;7749;49.964;7.890;2022-07-01T05:34:43;17.80;1.00
15296;DHT22;7749;49.964;7.890;2022-07-01T05:37:11;17.90;1.00
15296;DHT22;7749;49.964;7.890;2022-07-01T05:39:39;18.00;1.00
15296;DHT22;7749;49.964;7.890;2022-07-01T05:42:15;18.10;1.00
15296;DHT22;7749;49.964;7.890;2022-07-01T05:44:42;18.10;1.00
15296;DHT22;7749;49.964;7.890;2022-07-01T05:47:11;18.10;1.00
15296;DHT22;7749;49.964;7.890;2022-07-01T05:49:38;18.30;1.00
15296;DHT22;7749;49.964;7.890;2022-07-01T05:52:08;18.50;1.00
15296;DHT22;7749;49.964;7.890;2022-07-01T05:54:36;18.40;1.00
15296;DHT22;7749;49.964;7.890;2022-07-01T05:57:04;18.50;1.00
15296;DHT22;7749;49.964;7.890;2022-07-01T05:59:36;18.70;1.00
15296;DHT22;7749;49.964;7.890;2022-07-01T06:02:06;18.70;1.00
15296;DHT22;7749;49.964;7.890;2022-07-01T06:04:35;18.70;1.00
15296;DHT22;7749;49.964;7.890;2022-07-01T06:07:03;18.80;1.00
15296;DHT22;7749;49.964;7.890;2022-07-01T06:09:30;18.80;1.00
15296;DHT22;7749;49.964;7.890;2022-07-01T06:11:58;19.00;1.00
15296;DHT22;7749;49.964;7.890;2022-07-01T06:14:25;18.90;1.00
15296;DHT22;7749;49.964;7.890;2022-07-01T06:16:52;18.90;1.00
15296;DHT22;7749;49.964;7.890;2022-07-01T06:19:20;18.80;1.00
15296;DHT22;7749;49.964;7.890;2022-07-01T06:21:47;18.80;1.00
15296;DHT22;7749;49.964;7.890;2022-07-01T06:24:17;18.70;1.00
15296;DHT22;7749;49.964;7.890;2022-07-01T06:26:48;18.70;1.00
15296;DHT22;7749;49.964;7.890;2022-07-01T06:29:15;18.80;1.00
15296;DHT22;7749;49.964;7.890;2022-07-01T06:31:45;18.90;1.00
15296;DHT22;7749;49.964;7.890;2022-07-01T06:34:15;19.00;1.00
15296;DHT22;7749;49.964;7.890;2022-07-01T06:36:48;19.20;1.00
15296;DHT22;7749;49.964;7.890;2022-07-01T06:39:15;19.20;1.00
15296;DHT22;7749;49.964;7.890;2022-07-01T06:41:42;19.30;1.00
15296;DHT22;7749;49.964;7.890;2022-07-01T06:44:10;19.20;1.00
15296;DHT22;7749;49.964;7.890;2022-07-01T06:46:37;19.20;1.00
15296;DHT22;7749;49.964;7.890;2022-07-01T06:49:05;19.10;1.00
15296;DHT22;7749;49.964;7.890;2022-07-01T06:51:32;19.00;1.00
15296;DHT22;7749;49.964;7.890;2022-07-01T06:54:00;18.90;1.00
15296;DHT22;7749;49.964;7.890;2022-07-01T06:56:27;18.80;1.00
15296;DHT22;7749;49.964;7.890;2022-07-01T06:58:55;18.80;1.00
15296;DHT22;7749;49.964;7.890;2022-07-01T07:01:22;18.80;1.00
15296;DHT22;7749;49.964;7.890;2022-07-01T07:03:50;18.90;1.00
15296;DHT22;7749;49.964;7.890;2022-07-01T07:06:18;18.90;1.00
15296;DHT22;7749;49.964;7.890;2022-07-01T07:08:45;19.00;1.00
15296;DHT22;7749;49.964;7.890;2022-07-01T07:11:13;19.00;1.00
15296;DHT22;7749;49.964;7.890;2022-07-01T07:13:42;18.90;1.00
15296;DHT22;7749;49.964;7.890;2022-07-01T07:16:12;18.80;1.00
15296;DHT22;7749;49.964;7.890;2022-07-01T07:18:42;18.70;1.00
15296;DHT22;7749;49.964;7.890;2022-07-01T07:21:10;18.60;1.00
15296;DHT22;7749;49.964;7.890;2022-07-01T07:23:37;18.80;1.00
15296;DHT22;7749;49.964;7.890;2022-07-01T07:26:05;18.90;1.00
15296;DHT22;7749;49.964;7.890;2022-07-01T07:28:33;19.10;1.00
15296;DHT22;7749;49.964;7.890;2022-07-01T07:31:01;19.20;1.00
15296;DHT22;7749;49.964;7.890;2022-07-01T07:33:28;19.10;1.00
15296;DHT22;7749;49.964;7.890;2022-07-01T07:36:01;19.10;1.00
15296;DHT22;7749;49.964;7.890;2022-07-01T07:38:28;19.10;1.00
15296;DHT22;7749;49.964;7.890;2022-07-01T07:40:56;19.00;1.00
15296;DHT22;7749;49.964;7.890;2022-07-01T07:43:23;19.00;1.00
15296;DHT22;7749;49.964;7.890;2022-07-01T07:45:50;19.00;1.00
15296;DHT22;7749;49.964;7.890;2022-07-01T07:48:18;18.90;1.00
15296;DHT22;7749;49.964;7.890;2022-07-01T07:50:46;18.60;1.00
15296;DHT22;7749;49.964;7.890;2022-07-01T07:53:14;18.60;1.00
15296;DHT22;7749;49.964;7.890;2022-07-01T07:55:44;18.70;1.00
15296;DHT22;7749;49.964;7.890;2022-07-01T07:58:13;18.80;1.00
15296;DHT22;7749;49.964;7.890;2022-07-01T08:00:40;18.90;1.00
15296;DHT22;7749;49.964;7.890;2022-07-01T08:03:10;19.10;1.00
15296;DHT22;7749;49.964;7.890;2022-07-01T08:05:41;19.10;1.00
15296;DHT22;7749;49.964;7.890;2022-07-01T08:08:08;19.00;1.00
15296;DHT22;7749;49.964;7.890;2022-07-01T08:10:38;19.40;1.00
15296;DHT22;7749;49.964;7.890;2022-07-01T08:13:33;19.90;1.00
15296;DHT22;7749;49.964;7.890;2022-07-01T08:16:01;20.20;99.90
15296;DHT22;7749;49.964;7.890;2022-07-01T08:18:29;20.30;99.90
15296;DHT22;7749;49.964;7.890;2022-07-01T08:20:56;20.40;99.90
15296;DHT22;7749;49.964;7.890;2022-07-01T08:23:24;20.60;68.20
15296;DHT22;7749;49.964;7.890;2022-07-01T08:25:51;20.60;1.00
15296;DHT22;7749;49.964;7.890;2022-07-01T08:28:19;20.60;1.00
15296;DHT22;7749;49.964;7.890;2022-07-01T08:30:46;20.60;94.00
15296;DHT22;7749;49.964;7.890;2022-07-01T08:33:14;20.60;1.00
15296;DHT22;7749;49.964;7.890;2022-07-01T08:35:41;20.60;1.00
15296;DHT22;7749;49.964;7.890;2022-07-01T08:38:09;20.50;1.00
15296;DHT22;7749;49.964;7.890;2022-07-01T08:40:36;20.70;1.00
15296;DHT22;7749;49.964;7.890;2022-07-01T08:43:05;20.80;99.90
15296;DHT22;7749;49.964;7.890;2022-07-01T08:45:34;21.00;99.90
15296;DHT22;7749;49.964;7.890;2022-07-01T08:48:06;21.20;99.90
15296;DHT22;7749;49.964;7.890;2022-07-01T08:50:39;21.30;1.00
15296;DHT22;7749;49.964;7.890;2022-07-01T08:53:11;21.80;1.00
15296;DHT22;7749;49.964;7.890;2022-07-01T08:55:39;22.10;1.00
15296;DHT22;7749;49.964;7.890;2022-07-01T08:58:27;22.40;99.90
15296;DHT22;7749;49.964;7.890;2022-07-01T09:01:20;22.50;99.90
15296;DHT22;7749;49.964;7.890;2022-07-01T09:03:56;22.80;1.00
15296;DHT22;7749;49.964;7.890;2022-07-01T09:06:27;23.00;1.00
15296;DHT22;7749;49.964;7.890;2022-07-01T09:09:14;23.00;1.00
15296;DHT22;7749;49.964;7.890;2022-07-01T09:11:47;22.80;99.90
15296;DHT22;7749;49.964;7.890;2022-07-01T09:14:22;22.50;1.00
15296;DHT22;7749;49.964;7.890;2022-07-01T09:16:52;22.20;5.70
15296;DHT22;7749;49.964;7.890;2022-07-01T09:19:22;21.90;1.00
15296;DHT22;7749;49.964;7.890;2022-07-01T09:21:52;21.80;1.00
15296;DHT22;7749;49.964;7.890;2022-07-01T09:24:25;21.80;99.90
15296;DHT22;7749;49.964;7.890;2022-07-01T09:27:01;22.30;1.00
15296;DHT22;7749;49.964;7.890;2022-07-01T09:29:32;22.60;99.90
15296;DHT22;7749;49.964;7.890;2022-07-01T09:32:04;22.80;1.00
15296;DHT22;7749;49.964;7.890;2022-07-01T09:34:34;22.60;99.90
15296;DHT22;7749;49.964;7.890;2022-07-01T09:37:02;22.70;1.00
15296;DHT22;7749;49.964;7.890;2022-07-01T09:39:30;22.80;99.90
15296;DHT22;7749;49.964;7.890;2022-07-01T09:42:08;23.10;1.00
15296;DHT22;7749;49.964;7.890;2022-07-01T09:52:52;24.80;1.00
15296;DHT22;7749;49.964;7.890;2022-07-01T09:55:19;25.60;1.00
15296;DHT22;7749;49.964;7.890;2022-07-01T09:57:47;24.80;1.00
15296;DHT22;7749;49.964;7.890;2022-07-01T10:00:14;24.50;18.50
15296;DHT22;7749;49.964;7.890;2022-07-01T10:02:42;24.20;99.90
15296;DHT22;7749;49.964;7.890;2022-07-01T10:05:17;23.90;99.90
15296;DHT22;7749;49.964;7.890;2022-07-01T10:13:27;23.70;1.00
15296;DHT22;7749;49.964;7.890;2022-07-01T10:15:59;23.60;1.00
15296;DHT22;7749;49.964;7.890;2022-07-01T10:18:28;23.90;1.00
15296;DHT22;7749;49.964;7.890;2022-07-01T10:20:57;24.50;1.00
15296;DHT22;7749;49.964;7.890;2022-07-01T10:23:36;24.60;1.00
15296;DHT22;7749;49.964;7.890;2022-07-01T10:26:05;24.30;1.00
15296;DHT22;7749;49.964;7.890;2022-07-01T10:28:41;24.30;99.90
15296;DHT22;7749;49.964;7.890;2022-07-01T10:31:14;23.70;1.00
15296;DHT22;7749;49.964;7.890;2022-07-01T10:41:32;23.00;1.00
15296;DHT22;7749;49.964;7.890;2022-07-01T10:44:08;23.40;1.00
15296;DHT22;7749;49.964;7.890;2022-07-01T10:49:17;23.10;1.00
15296;DHT22;7749;49.964;7.890;2022-07-01T10:51:52;23.10;1.00
15296;DHT22;7749;49.964;7.890;2022-07-01T10:59:44;23.60;1.00
15296;DHT22;7749;49.964;7.890;2022-07-01T11:02:14;24.00;1.00
15296;DHT22;7749;49.964;7.890;2022-07-01T11:04:50;25.10;1.00
15296;DHT22;7749;49.964;7.890;2022-07-01T11:07:18;26.00;99.90
15296;DHT22;7749;49.964;7.890;2022-07-01T11:09:46;26.50;32.20
15296;DHT22;7749;49.964;7.890;2022-07-01T11:12:15;26.10;1.00
15296;DHT22;7749;49.964;7.890;2022-07-01T11:14:44;26.80;1.00
15296;DHT22;7749;49.964;7.890;2022-07-01T11:17:13;27.00;1.00
15296;DHT22;7749;49.964;7.890;2022-07-01T11:19:51;26.70;1.00
15296;DHT22;7749;49.964;7.890;2022-07-01T11:22:22;26.30;1.00
15296;DHT22;7749;49.964;7.890;2022-07-01T11:24:54;25.40;1.00
15296;DHT22;7749;49.964;7.890;2022-07-01T11:27:22;25.50;1.00
15296;DHT22;7749;49.964;7.890;2022-07-01T11:29:54;25.50;1.00
15296;DHT22;7749;49.964;7.890;2022-07-01T11:32:30;25.70;1.00
15296;DHT22;7749;49.964;7.890;2022-07-01T11:34:58;25.50;1.00
15296;DHT22;7749;49.964;7.890;2022-07-01T11:37:31;25.70;1.00
15296;DHT22;7749;49.964;7.890;2022-07-01T11:40:18;25.90;1.00
15296;DHT22;7749;49.964;7.890;2022-07-01T11:42:46;26.50;1.00
15296;DHT22;7749;49.964;7.890;2022-07-01T11:45:24;26.50;1.00
15296;DHT22;7749;49.964;7.890;2022-07-01T11:47:52;26.10;1.00
15296;DHT22;7749;49.964;7.890;2022-07-01T11:50:20;25.30;1.00
15296;DHT22;7749;49.964;7.890;2022-07-01T11:52:48;24.30;1.00
15296;DHT22;7749;49.964;7.890;2022-07-01T11:55:19;24.10;1.00
15296;DHT22;7749;49.964;7.890;2022-07-01T11:58:04;23.90;1.00
15296;DHT22;7749;49.964;7.890;2022-07-01T12:00:34;23.60;1.00
15296;DHT22;7749;49.964;7.890;2022-07-01T12:03:01;23.50;1.00
15296;DHT22;7749;49.964;7.890;2022-07-01T12:05:29;23.30;1.00
15296;DHT22;7749;49.964;7.890;2022-07-01T12:08:04;23.60;1.00
15296;DHT22;7749;49.964;7.890;2022-07-01T12:10:31;23.90;1.00
15296;DHT22;7749;49.964;7.890;2022-07-01T12:12:59;24.30;1.00
15296;DHT22;7749;49.964;7.890;2022-07-01T12:15:27;24.90;1.00
15296;DHT22;7749;49.964;7.890;2022-07-01T12:18:05;26.90;1.00
15296;DHT22;7749;49.964;7.890;2022-07-01T12:20:32;28.90;1.00
15296;DHT22;7749;49.964;7.890;2022-07-01T12:23:15;30.30;1.00
15296;DHT22;7749;49.964;7.890;2022-07-01T12:25:48;30.50;1.00
15296;DHT22;7749;49.964;7.890;2022-07-01T12:28:33;30.90;99.90
15296;DHT22;7749;49.964;7.890;2022-07-01T12:31:08;29.20;99.90
15296;DHT22;7749;49.964;7.890;2022-07-01T12:33:40;27.50;99.90
15296;DHT22;7749;49.964;7.890;2022-07-01T12:36:15;26.20;99.90
15296;DHT22;7749;49.964;7.890;2022-07-01T12:38:43;25.50;99.90
15296;DHT22;7749;49.964;7.890;2022-07-01T12:41:31;24.80;99.90
15296;DHT22;7749;49.964;7.890;2022-07-01T12:44:21;24.90;1.00
15296;DHT22;7749;49.964;7.890;2022-07-01T12:46:48;25.60;1.00
15296;DHT22;7749;49.964;7.890;2022-07-01T12:49:33;28.50;1.00
15296;DHT22;7749;49.964;7.890;2022-07-01T12:52:02;32.60;99.90
15296;DHT22;7749;49.964;7.890;2022-07-01T12:54:37;34.60;99.90
15296;DHT22;7749;49.964;7.890;2022-07-01T12:57:05;34.60;99.90
15296;DHT22;7749;49.964;7.890;2022-07-01T12:59:33;33.90;99.90
15296;DHT22;7749;49.964;7.890;2022-07-01T13:02:00;33.00;99.90
15296;DHT22;7749;49.964;7.890;2022-07-01T13:04:29;34.00;99.90
15296;DHT22;7749;49.964;7.890;2022-07-01T13:06:57;35.30;99.90
15296;DHT22;7749;49.964;7.890;2022-07-01T13:09:24;35.60;99.90
15296;DHT22;7749;49.964;7.890;2022-07-01T13:11:52;35.70;99.90
15296;DHT22;7749;49.964;7.890;2022-07-01T13:14:19;36.10;99.90
15296;DHT22;7749;49.964;7.890;2022-07-01T13:16:47;36.70;99.90
15296;DHT22;7749;49.964;7.890;2022-07-01T13:19:14;37.20;99.90
15296;DHT22;7749;49.964;7.890;2022-07-01T13:21:42;37.20;99.90
15296;DHT22;7749;49.964;7.890;2022-07-01T13:24:09;35.40;99.90
15296;DHT22;7749;49.964;7.890;2022-07-01T13:26:57;33.60;99.90
15296;DHT22;7749;49.964;7.890;2022-07-01T13:29:24;31.60;99.90
15296;DHT22;7749;49.964;7.890;2022-07-01T13:31:54;29.40;99.90
15296;DHT22;7749;49.964;7.890;2022-07-01T13:34:22;27.60;99.90
15296;DHT22;7749;49.964;7.890;2022-07-01T13:36:50;26.80;99.90
15296;DHT22;7749;49.964;7.890;2022-07-01T13:39:17;26.00;99.90
15296;DHT22;7749;49.964;7.890;2022-07-01T13:41:45;25.50;99.90
15296;DHT22;7749;49.964;7.890;2022-07-01T13:44:14;25.30;99.90
15296;DHT22;7749;49.964;7.890;2022-07-01T13:46:41;25.30;99.90
15296;DHT22;7749;49.964;7.890;2022-07-01T13:49:13;25.50;1.00
15296;DHT22;7749;49.964;7.890;2022-07-01T13:51:41;26.10;1.00
15296;DHT22;7749;49.964;7.890;2022-07-01T13:54:09;27.10;99.90
15296;DHT22;7749;49.964;7.890;2022-07-01T13:56:37;27.70;99.90
15296;DHT22;7749;49.964;7.890;2022-07-01T13:59:08;28.20;99.90
15296;DHT22;7749;49.964;7.890;2022-07-01T14:01:36;29.50;99.90
15296;DHT22;7749;49.964;7.890;2022-07-01T14:04:03;31.20;99.90
15296;DHT22;7749;49.964;7.890;2022-07-01T14:06:31;32.70;99.90
15296;DHT22;7749;49.964;7.890;2022-07-01T14:08:58;32.10;99.90
15296;DHT22;7749;49.964;7.890;2022-07-01T14:11:26;30.30;99.90
15296;DHT22;7749;49.964;7.890;2022-07-01T14:13:53;29.00;99.90
15296;DHT22;7749;49.964;7.890;2022-07-01T14:16:20;28.10;99.90
15296;DHT22;7749;49.964;7.890;2022-07-01T14:18:48;27.50;99.90
15296;DHT22;7749;49.964;7.890;2022-07-01T14:21:18;27.00;99.90
15296;DHT22;7749;49.964;7.890;2022-07-01T14:23:46;26.60;99.90
15296;DHT22;7749;49.964;7.890;2022-07-01T14:26:13;26.60;99.90
15296;DHT22;7749;49.964;7.890;2022-07-01T14:28:42;26.80;99.90
15296;DHT22;7749;49.964;7.890;2022-07-01T14:31:09;27.80;99.90
15296;DHT22;7749;49.964;7.890;2022-07-01T14:33:37;28.90;99.90
15296;DHT22;7749;49.964;7.890;2022-07-01T14:36:04;30.60;99.90
15296;DHT22;7749;49.964;7.890;2022-07-01T14:38:32;31.30;99.90
15296;DHT22;7749;49.964;7.890;2022-07-01T14:40:59;31.40;99.90
15296;DHT22;7749;49.964;7.890;2022-07-01T14:43:27;31.50;99.90
15296;DHT22;7749;49.964;7.890;2022-07-01T14:45:56;31.00;99.90
15296;DHT22;7749;49.964;7.890;2022-07-01T14:48:24;30.50;99.90
15296;DHT22;7749;49.964;7.890;2022-07-01T14:50:51;31.00;99.90
15296;DHT22;7749;49.964;7.890;2022-07-01T14:53:19;32.80;99.90
15296;DHT22;7749;49.964;7.890;2022-07-01T14:56:16;35.40;99.90
15296;DHT22;7749;49.964;7.890;2022-07-01T14:59:03;38.20;99.90
15296;DHT22;7749;49.964;7.890;2022-07-01T15:01:37;37.40;99.90
15296;DHT22;7749;49.964;7.890;2022-07-01T15:04:05;35.20;99.90
15296;DHT22;7749;49.964;7.890;2022-07-01T15:06:32;33.10;99.90
15296;DHT22;7749;49.964;7.890;2022-07-01T15:09:00;31.20;99.90
15296;DHT22;7749;49.964;7.890;2022-07-01T15:11:27;30.00;99.90
15296;DHT22;7749;49.964;7.890;2022-07-01T15:13:54;28.70;99.90
15296;DHT22;7749;49.964;7.890;2022-07-01T15:16:22;27.70;99.90
15296;DHT22;7749;49.964;7.890;2022-07-01T15:18:51;27.20;99.90
15296;DHT22;7749;49.964;7.890;2022-07-01T15:21:19;27.40;99.90
15296;DHT22;7749;49.964;7.890;2022-07-01T15:23:46;29.10;99.90
15296;DHT22;7749;49.964;7.890;2022-07-01T15:26:14;32.20;99.90
15296;DHT22;7749;49.964;7.890;2022-07-01T15:28:41;35.20;99.90
15296;DHT22;7749;49.964;7.890;2022-07-01T15:31:08;37.40;99.90
15296;DHT22;7749;49.964;7.890;2022-07-01T15:33:56;37.00;99.90
15296;DHT22;7749;49.964;7.890;2022-07-01T15:36:24;34.60;99.90
15296;DHT22;7749;49.964;7.890;2022-07-01T15:38:52;32.30;99.90
15296;DHT22;7749;49.964;7.890;2022-07-01T15:41:21;30.60;99.90
15296;DHT22;7749;49.964;7.890;2022-07-01T15:43:50;28.30;99.90
15296;DHT22;7749;49.964;7.890;2022-07-01T15:46:17;27.20;99.90
15296;DHT22;7749;49.964;7.890;2022-07-01T15:48:45;26.10;99.90
15296;DHT22;7749;49.964;7.890;2022-07-01T15:51:12;25.10;99.90
15296;DHT22;7749;49.964;7.890;2022-07-01T15:53:40;24.80;99.90
15296;DHT22;7749;49.964;7.890;2022-07-01T15:56:07;24.90;99.90
15296;DHT22;7749;49.964;7.890;2022-07-01T15:58:35;25.00;99.90
15296;DHT22;7749;49.964;7.890;2022-07-01T16:01:02;25.10;99.90
15296;DHT22;7749;49.964;7.890;2022-07-01T16:03:30;25.20;99.90
15296;DHT22;7749;49.964;7.890;2022-07-01T16:06:02;25.20;99.90
15296;DHT22;7749;49.964;7.890;2022-07-01T16:08:35;25.20;99.90
15296;DHT22;7749;49.964;7.890;2022-07-01T16:11:10;25.30;99.90
15296;DHT22;7749;49.964;7.890;2022-07-01T16:13:42;25.40;99.90
15296;DHT22;7749;49.964;7.890;2022-07-01T16:16:11;25.50;99.90
15296;DHT22;7749;49.964;7.890;2022-07-01T16:18:49;25.50;99.90
15296;DHT22;7749;49.964;7.890;2022-07-01T16:21:16;25.40;99.90
15296;DHT22;7749;49.964;7.890;2022-07-01T16:23:49;25.20;99.90
15296;DHT22;7749;49.964;7.890;2022-07-01T16:26:21;25.20;99.90
15296;DHT22;7749;49.964;7.890;2022-07-01T16:28:50;24.80;99.90
15296;DHT22;7749;49.964;7.890;2022-07-01T16:31:19;24.90;99.90
15296;DHT22;7749;49.964;7.890;2022-07-01T16:33:48;25.00;99.90
15296;DHT22;7749;49.964;7.890;2022-07-01T16:41:58;24.60;99.90